sensor_id;sensor_type;location;lat;lon;timestamp;pressure;altitude;pressure_sealevel;temperature;humidity
25658;BME280;13517;59.320;18.042;2023-03-04T00:01:13;99783.03;;;-0.76;50.88
25658;BME280;13517;59.320;18.042;2023-03-04T00:03:39;99849.63;;;-0.58;51.07
25658;BME280;13517;59.320;18.042;2023-03-04T00:06:04;99779.59;;;-0.79;50.81
25658;BME280;13517;59.320;18.042;2023-03-04T00:08:30;99837.25;;;-0.58;51.16
25658;BME280;13517;59.320;18.042;2023-03-04T00:10:55;99818.91;;;-0.65;50.87
25658;BME280;13517;59.320;18.042;2023-03-04T00:13:21;99705.84;;;-1.20;50.64
25658;BME280;13517;59.320;18.042;2023-03-04T00:15:47;99750.38;;;-1.05;51.02
25658;BME280;13517;59.320;18.042;2023-03-04T00:18:13;99782.03;;;-1.00;50.74
25658;BME280;13517;59.320;18.042;2023-03-04T00:20:38;99872.66;;;-0.59;51.30
25658;BME280;13517;59.320;18.042;2023-03-04T00:23:04;99827.34;;;-0.79;50.54
25658;BME280;13517;59.320;18.042;2023-03-04T00:25:29;99826.38;;;-0.77;50.72
25658;BME280;13517;59.320;18.042;2023-03-04T00:27:55;99856.41;;;-0.76;50.93
25658;BME280;13517;59.320;18.042;2023-03-04T00:30:22;99801.41;;;-0.98;51.37
25658;BME280;13517;59.320;18.042;2023-03-04T00:32:48;99821.34;;;-0.86;51.10
25658;BME280;13517;59.320;18.042;2023-03-04T00:35:13;99844.88;;;-0.75;51.38
25658;BME280;13517;59.320;18.042;2023-03-04T00:37:38;99787.53;;;-1.06;50.96
25658;BME280;13517;59.320;18.042;2023-03-04T00:40:04;99771.75;;;-1.10;51.00
25658;BME280;13517;59.320;18.042;2023-03-04T00:42:30;99836.91;;;-1.02;51.31
25658;BME280;13517;59.320;18.042;2023-03-04T00:44:55;99785.22;;;-1.17;51.16
25658;BME280;13517;59.320;18.042;2023-03-04T00:47:21;99826.00;;;-0.93;51.33
25658;BME280;13517;59.320;18.042;2023-03-04T00:49:46;99795.19;;;-1.26;50.92
25658;BME280;13517;59.320;18.042;2023-03-04T00:52:12;99806.53;;;-1.20;51.19
25658;BME280;13517;59.320;18.042;2023-03-04T00:54:37;99887.91;;;-0.94;51.38
25658;BME280;13517;59.320;18.042;2023-03-04T00:57:02;99821.19;;;-1.08;51.43
25658;BME280;13517;59.320;18.042;2023-03-04T00:59:28;99745.78;;;-1.57;51.52
25658;BME280;13517;59.320;18.042;2023-03-04T01:01:53;99807.41;;;-1.21;51.86
25658;BME280;13517;59.320;18.042;2023-03-04T01:04:19;99806.72;;;-1.27;52.30
25658;BME280;13517;59.320;18.042;2023-03-04T01:06:44;99773.63;;;-1.43;52.27
25658;BME280;13517;59.320;18.042;2023-03-04T01:09:10;99852.03;;;-1.06;52.17
25658;BME280;13517;59.320;18.042;2023-03-04T01:11:35;99825.13;;;-1.22;52.13
25658;BME280;13517;59.320;18.042;2023-03-04T01:14:00;99848.66;;;-1.11;52.41
25658;BME280;13517;59.320;18.042;2023-03-04T01:16:26;99796.00;;;-1.24;52.29
25658;BME280;13517;59.320;18.042;2023-03-04T01:18:52;99821.16;;;-1.37;52.74
25658;BME280;13517;59.320;18.042;2023-03-04T01:21:17;99788.75;;;-1.47;52.85
25658;BME280;13517;59.320;18.042;2023-03-04T01:23:42;99816.00;;;-1.42;52.66
25658;BME280;13517;59.320;18.042;2023-03-04T01:26:08;99757.97;;;-1.81;52.72
25658;BME280;13517;59.320;18.042;2023-03-04T01:28:33;99773.66;;;-1.73;52.98
25658;BME280;13517;59.320;18.042;2023-03-04T01:31:01;99773.69;;;-1.75;53.11
25658;BME280;13517;59.320;18.042;2023-03-04T01:33:27;99780.91;;;-1.80;52.62
25658;BME280;13517;59.320;18.042;2023-03-04T01:35:53;99775.41;;;-1.74;53.69
25658;BME280;13517;59.320;18.042;2023-03-04T01:38:18;99864.50;;;-1.40;53.50
25658;BME280;13517;59.320;18.042;2023-03-04T01:40:43;99806.41;;;-1.78;53.16
25658;BME280;13517;59.320;18.042;2023-03-04T01:43:17;99821.19;;;-1.69;52.72
25658;BME280;13517;59.320;18.042;2023-03-04T01:45:47;99844.06;;;-1.36;52.42
25658;BME280;13517;59.320;18.042;2023-03-04T01:48:16;99813.00;;;-1.59;52.63
25658;BME280;13517;59.320;18.042;2023-03-04T01:50:42;99883.19;;;-1.44;52.92
25658;BME280;13517;59.320;18.042;2023-03-04T01:53:14;99846.25;;;-1.51;53.20
25658;BME280;13517;59.320;18.042;2023-03-04T01:55:41;99851.56;;;-1.51;52.85
25658;BME280;13517;59.320;18.042;2023-03-04T01:58:09;99856.03;;;-1.53;53.03
25658;BME280;13517;59.320;18.042;2023-03-04T02:00:34;99776.09;;;-1.97;53.32
25658;BME280;13517;59.320;18.042;2023-03-04T02:03:05;99783.94;;;-1.94;53.22
25658;BME280;13517;59.320;18.042;2023-03-04T02:05:33;99819.59;;;-1.74;53.00
25658;BME280;13517;59.320;18.042;2023-03-04T02:08:00;99780.47;;;-1.96;53.07
25658;BME280;13517;59.320;18.042;2023-03-04T02:10:27;99764.06;;;-2.09;52.67
25658;BME280;13517;59.320;18.042;2023-03-04T02:12:53;99831.59;;;-1.62;52.21
25658;BME280;13517;59.320;18.042;2023-03-04T02:15:18;99787.50;;;-1.95;52.11
25658;BME280;13517;59.320;18.042;2023-03-04T02:17:44;99851.31;;;-1.73;51.45
25658;BME280;13517;59.320;18.042;2023-03-04T02:22:39;99819.59;;;-1.74;50.88
25658;BME280;13517;59.320;18.042;2023-03-04T02:25:10;99816.19;;;-1.80;50.96
25658;BME280;13517;59.320;18.042;2023-03-04T02:27:40;99755.53;;;-2.19;50.76
25658;BME280;13517;59.320;18.042;2023-03-04T02:30:06;99775.56;;;-2.10;50.12
25658;BME280;13517;59.320;18.042;2023-03-04T02:32:32;99778.28;;;-2.12;50.06
25658;BME280;13517;59.320;18.042;2023-03-04T02:34:57;99851.56;;;-1.82;49.62
25658;BME280;13517;59.320;18.042;2023-03-04T02:37:22;99760.28;;;-2.00;49.75
25658;BME280;13517;59.320;18.042;2023-03-04T02:39:48;99786.09;;;-2.07;49.35
25658;BME280;13517;59.320;18.042;2023-03-04T02:42:15;99824.25;;;-1.84;49.29
25658;BME280;13517;59.320;18.042;2023-03-04T02:44:43;99733.22;;;-2.42;48.77
25658;BME280;13517;59.320;18.042;2023-03-04T02:47:13;99857.81;;;-1.85;48.49
25658;BME280;13517;59.320;18.042;2023-03-04T02:49:39;99858.81;;;-1.89;49.08
25658;BME280;13517;59.320;18.042;2023-03-04T02:52:07;99840.28;;;-1.89;48.39
25658;BME280;13517;59.320;18.042;2023-03-04T02:54:34;99834.06;;;-1.88;45.34
25658;BME280;13517;59.320;18.042;2023-03-04T02:57:02;99834.81;;;-1.83;46.11
25658;BME280;13517;59.320;18.042;2023-03-04T02:59:28;99825.72;;;-2.39;44.93
25658;BME280;13517;59.320;18.042;2023-03-04T03:01:54;99814.47;;;-2.14;43.66
25658;BME280;13517;59.320;18.042;2023-03-04T03:04:20;99845.44;;;-1.84;43.31
25658;BME280;13517;59.320;18.042;2023-03-04T03:06:46;99822.09;;;-2.01;42.89
25658;BME280;13517;59.320;18.042;2023-03-04T03:09:12;99845.66;;;-1.92;43.64
25658;BME280;13517;59.320;18.042;2023-03-04T03:11:37;99831.97;;;-2.08;43.60
25658;BME280;13517;59.320;18.042;2023-03-04T03:14:03;99772.00;;;-2.41;41.96
25658;BME280;13517;59.320;18.042;2023-03-04T03:16:29;99782.31;;;-2.31;43.83
25658;BME280;13517;59.320;18.042;2023-03-04T03:18:55;99792.09;;;-2.34;42.50
25658;BME280;13517;59.320;18.042;2023-03-04T03:21:20;99860.88;;;-2.34;42.89
25658;BME280;13517;59.320;18.042;2023-03-04T03:23:45;99703.94;;;-3.02;43.37
25658;BME280;13517;59.320;18.042;2023-03-04T03:26:11;99826.84;;;-2.14;42.14
25658;BME280;13517;59.320;18.042;2023-03-04T03:28:36;99819.69;;;-2.46;41.89
25658;BME280;13517;59.320;18.042;2023-03-04T03:31:02;99796.50;;;-2.34;41.91
25658;BME280;13517;59.320;18.042;2023-03-04T03:33:27;99773.22;;;-2.54;42.48
25658;BME280;13517;59.320;18.042;2023-03-04T03:35:53;99822.81;;;-2.29;42.26
25658;BME280;13517;59.320;18.042;2023-03-04T03:38:18;99795.09;;;-2.49;42.27
25658;BME280;13517;59.320;18.042;2023-03-04T03:40:44;99788.81;;;-2.43;42.94
25658;BME280;13517;59.320;18.042;2023-03-04T03:43:09;99756.69;;;-2.99;43.55
25658;BME280;13517;59.320;18.042;2023-03-04T03:45:35;99726.09;;;-3.08;43.49
25658;BME280;13517;59.320;18.042;2023-03-04T03:48:00;99736.47;;;-3.00;44.01
25658;BME280;13517;59.320;18.042;2023-03-04T03:50:26;99818.91;;;-2.49;44.23
25658;BME280;13517;59.320;18.042;2023-03-04T03:52:53;99821.56;;;-2.49;45.00
25658;BME280;13517;59.320;18.042;2023-03-04T03:55:18;99817.19;;;-2.50;44.64
25658;BME280;13517;59.320;18.042;2023-03-04T03:57:43;99752.28;;;-2.98;44.72
25658;BME280;13517;59.320;18.042;2023-03-04T04:00:10;99775.72;;;-2.84;44.58
25658;BME280;13517;59.320;18.042;2023-03-04T04:02:35;99807.88;;;-2.65;44.61
25658;BME280;13517;59.320;18.042;2023-03-04T04:05:01;99710.41;;;-3.52;45.40
25658;BME280;13517;59.320;18.042;2023-03-04T04:07:26;99768.63;;;-3.19;44.50
25658;BME280;13517;59.320;18.042;2023-03-04T04:09:52;99748.31;;;-3.17;42.84
25658;BME280;13517;59.320;18.042;2023-03-04T04:12:18;99841.63;;;-2.77;44.35
25658;BME280;13517;59.320;18.042;2023-03-04T04:14:44;99843.06;;;-3.01;43.81
25658;BME280;13517;59.320;18.042;2023-03-04T04:17:10;99822.06;;;-3.07;43.56
25658;BME280;13517;59.320;18.042;2023-03-04T04:19:36;99694.25;;;-3.77;43.74
25658;BME280;13517;59.320;18.042;2023-03-04T04:22:02;99760.91;;;-3.28;45.00
25658;BME280;13517;59.320;18.042;2023-03-04T04:24:28;99826.63;;;-3.14;43.58
25658;BME280;13517;59.320;18.042;2023-03-04T04:26:53;99832.50;;;-3.01;43.14
25658;BME280;13517;59.320;18.042;2023-03-04T04:29:19;99779.34;;;-3.25;44.23
25658;BME280;13517;59.320;18.042;2023-03-04T04:31:45;99806.78;;;-3.32;44.14
25658;BME280;13517;59.320;18.042;2023-03-04T04:34:10;99802.56;;;-3.39;44.05
25658;BME280;13517;59.320;18.042;2023-03-04T04:36:36;99816.09;;;-3.16;42.75
25658;BME280;13517;59.320;18.042;2023-03-04T04:39:02;99827.75;;;-3.24;43.98
25658;BME280;13517;59.320;18.042;2023-03-04T04:41:37;99828.00;;;-3.37;42.58
25658;BME280;13517;59.320;18.042;2023-03-04T04:44:03;99857.59;;;-3.21;42.47
25658;BME280;13517;59.320;18.042;2023-03-04T04:46:28;99733.50;;;-4.03;41.86
25658;BME280;13517;59.320;18.042;2023-03-04T04:48:54;99759.22;;;-3.70;41.86
25658;BME280;13517;59.320;18.042;2023-03-04T04:51:20;99857.44;;;-3.56;42.07
25658;BME280;13517;59.320;18.042;2023-03-04T04:53:46;99765.47;;;-3.76;42.21
25658;BME280;13517;59.320;18.042;2023-03-04T04:56:15;99787.34;;;-3.69;41.38
25658;BME280;13517;59.320;18.042;2023-03-04T04:58:42;99856.44;;;-3.48;41.75
25658;BME280;13517;59.320;18.042;2023-03-04T05:01:08;99865.19;;;-3.48;42.45
25658;BME280;13517;59.320;18.042;2023-03-04T05:03:35;99857.22;;;-3.43;41.73
25658;BME280;13517;59.320;18.042;2023-03-04T05:06:01;99835.31;;;-3.50;42.76
25658;BME280;13517;59.320;18.042;2023-03-04T05:08:26;99839.13;;;-3.63;42.54
25658;BME280;13517;59.320;18.042;2023-03-04T05:10:52;99860.06;;;-3.54;43.00
25658;BME280;13517;59.320;18.042;2023-03-04T05:13:18;99854.91;;;-3.60;42.92
25658;BME280;13517;59.320;18.042;2023-03-04T05:15:47;99820.44;;;-3.97;43.47
25658;BME280;13517;59.320;18.042;2023-03-04T05:18:14;99802.13;;;-4.06;43.61
25658;BME280;13517;59.320;18.042;2023-03-04T05:20:40;99759.13;;;-4.11;43.60
25658;BME280;13517;59.320;18.042;2023-03-04T05:23:05;99813.78;;;-4.16;40.90
25658;BME280;13517;59.320;18.042;2023-03-04T05:25:31;99806.06;;;-3.83;43.81
25658;BME280;13517;59.320;18.042;2023-03-04T05:27:56;99830.00;;;-3.91;43.49
25658;BME280;13517;59.320;18.042;2023-03-04T05:30:21;99872.66;;;-3.69;42.72
25658;BME280;13517;59.320;18.042;2023-03-04T05:32:47;99830.22;;;-4.02;43.40
25658;BME280;13517;59.320;18.042;2023-03-04T05:35:12;99836.47;;;-4.07;43.21
25658;BME280;13517;59.320;18.042;2023-03-04T05:37:38;99916.72;;;-3.72;43.29
25658;BME280;13517;59.320;18.042;2023-03-04T05:40:04;99922.03;;;-3.74;42.79
25658;BME280;13517;59.320;18.042;2023-03-04T05:42:30;99850.31;;;-3.96;43.13
25658;BME280;13517;59.320;18.042;2023-03-04T05:44:55;99866.97;;;-3.94;43.39
25658;BME280;13517;59.320;18.042;2023-03-04T05:47:20;99905.31;;;-3.74;43.25
25658;BME280;13517;59.320;18.042;2023-03-04T05:49:46;99968.84;;;-3.84;42.98
25658;BME280;13517;59.320;18.042;2023-03-04T05:52:11;99686.47;;;-5.21;43.77
25658;BME280;13517;59.320;18.042;2023-03-04T05:54:37;99872.00;;;-3.80;44.37
25658;BME280;13517;59.320;18.042;2023-03-04T05:57:02;99874.16;;;-4.02;43.49
25658;BME280;13517;59.320;18.042;2023-03-04T05:59:28;99818.78;;;-4.51;44.03
25658;BME280;13517;59.320;18.042;2023-03-04T06:01:53;99834.91;;;-4.19;43.79
25658;BME280;13517;59.320;18.042;2023-03-04T06:04:18;99895.16;;;-3.94;43.83
25658;BME280;13517;59.320;18.042;2023-03-04T06:06:44;99889.56;;;-3.77;44.46
25658;BME280;13517;59.320;18.042;2023-03-04T06:09:12;99918.53;;;-3.76;44.26
25658;BME280;13517;59.320;18.042;2023-03-04T06:11:37;99933.56;;;-3.79;43.76
25658;BME280;13517;59.320;18.042;2023-03-04T06:14:03;99885.44;;;-3.94;44.66
25658;BME280;13517;59.320;18.042;2023-03-04T06:16:29;99920.69;;;-3.97;44.08
25658;BME280;13517;59.320;18.042;2023-03-04T06:18:55;99925.72;;;-3.84;44.94
25658;BME280;13517;59.320;18.042;2023-03-04T06:21:20;99933.69;;;-3.86;45.56
25658;BME280;13517;59.320;18.042;2023-03-04T06:23:46;99857.81;;;-4.21;45.05
25658;BME280;13517;59.320;18.042;2023-03-04T06:26:11;99873.66;;;-4.21;45.53
25658;BME280;13517;59.320;18.042;2023-03-04T06:28:40;99840.69;;;-4.47;45.76
25658;BME280;13517;59.320;18.042;2023-03-04T06:31:06;99868.50;;;-4.29;46.34
25658;BME280;13517;59.320;18.042;2023-03-04T06:33:31;99939.94;;;-3.91;46.20
25658;BME280;13517;59.320;18.042;2023-03-04T06:35:57;99842.56;;;-4.56;45.61
25658;BME280;13517;59.320;18.042;2023-03-04T06:38:24;99940.81;;;-3.89;46.63
25658;BME280;13517;59.320;18.042;2023-03-04T06:40:50;99905.47;;;-4.31;45.61
25658;BME280;13517;59.320;18.042;2023-03-04T06:43:15;99917.56;;;-4.20;45.93
25658;BME280;13517;59.320;18.042;2023-03-04T06:45:40;99994.44;;;-3.89;46.77
25658;BME280;13517;59.320;18.042;2023-03-04T06:48:06;99953.94;;;-3.88;48.28
25658;BME280;13517;59.320;18.042;2023-03-04T06:50:31;99906.38;;;-4.33;47.29
25658;BME280;13517;59.320;18.042;2023-03-04T06:52:57;99971.56;;;-3.88;46.82
25658;BME280;13517;59.320;18.042;2023-03-04T06:55:22;99833.94;;;-4.64;46.82
25658;BME280;13517;59.320;18.042;2023-03-04T06:57:48;99906.03;;;-4.15;46.58
25658;BME280;13517;59.320;18.042;2023-03-04T07:00:14;99877.47;;;-4.40;47.34
25658;BME280;13517;59.320;18.042;2023-03-04T07:02:39;99896.81;;;-4.39;48.42
25658;BME280;13517;59.320;18.042;2023-03-04T07:05:05;99895.66;;;-4.24;47.14
25658;BME280;13517;59.320;18.042;2023-03-04T07:07:30;99904.28;;;-4.13;47.61
25658;BME280;13517;59.320;18.042;2023-03-04T07:09:56;99927.09;;;-4.12;48.23
25658;BME280;13517;59.320;18.042;2023-03-04T07:12:21;99886.00;;;-4.24;47.81
25658;BME280;13517;59.320;18.042;2023-03-04T07:14:47;99890.81;;;-3.99;47.35
25658;BME280;13517;59.320;18.042;2023-03-04T07:17:12;99891.81;;;-4.06;47.09
25658;BME280;13517;59.320;18.042;2023-03-04T07:19:37;99978.19;;;-3.64;48.65
25658;BME280;13517;59.320;18.042;2023-03-04T07:22:03;99901.59;;;-4.11;48.69
25658;BME280;13517;59.320;18.042;2023-03-04T07:24:29;99988.78;;;-3.69;47.69
25658;BME280;13517;59.320;18.042;2023-03-04T07:26:54;99791.94;;;-4.73;48.38
25658;BME280;13517;59.320;18.042;2023-03-04T07:29:20;99772.25;;;-5.06;48.47
25658;BME280;13517;59.320;18.042;2023-03-04T07:31:46;99999.50;;;-3.75;49.12
25658;BME280;13517;59.320;18.042;2023-03-04T07:34:12;99884.09;;;-4.17;48.34
25658;BME280;13517;59.320;18.042;2023-03-04T07:36:39;99978.41;;;-3.76;48.88
25658;BME280;13517;59.320;18.042;2023-03-04T07:39:05;99987.22;;;-3.77;49.07
25658;BME280;13517;59.320;18.042;2023-03-04T07:41:31;99911.28;;;-4.13;47.92
25658;BME280;13517;59.320;18.042;2023-03-04T07:44:00;99987.94;;;-3.69;48.12
25658;BME280;13517;59.320;18.042;2023-03-04T07:46:27;99813.59;;;-4.56;49.36
25658;BME280;13517;59.320;18.042;2023-03-04T07:48:54;99980.81;;;-3.64;47.88
25658;BME280;13517;59.320;18.042;2023-03-04T07:51:21;99934.94;;;-4.07;48.53
25658;BME280;13517;59.320;18.042;2023-03-04T07:53:49;100026.44;;;-3.56;49.05
25658;BME280;13517;59.320;18.042;2023-03-04T07:56:22;99975.78;;;-3.79;47.46
25658;BME280;13517;59.320;18.042;2023-03-04T07:58:48;99712.09;;;-5.30;49.40
25658;BME280;13517;59.320;18.042;2023-03-04T08:01:22;99900.34;;;-3.91;47.24
25658;BME280;13517;59.320;18.042;2023-03-04T08:03:48;99970.53;;;-3.32;47.95
25658;BME280;13517;59.320;18.042;2023-03-04T08:06:19;99948.16;;;-3.58;48.28
25658;BME280;13517;59.320;18.042;2023-03-04T08:08:46;99924.38;;;-3.58;47.60
25658;BME280;13517;59.320;18.042;2023-03-04T08:11:15;99973.00;;;-3.70;47.48
25658;BME280;13517;59.320;18.042;2023-03-04T08:13:41;100056.69;;;-3.25;48.45
25658;BME280;13517;59.320;18.042;2023-03-04T08:16:12;99922.53;;;-4.00;48.05
25658;BME280;13517;59.320;18.042;2023-03-04T08:18:42;99854.63;;;-4.39;48.06
25658;BME280;13517;59.320;18.042;2023-03-04T08:21:11;99933.50;;;-3.75;48.89
25658;BME280;13517;59.320;18.042;2023-03-04T08:23:37;99925.22;;;-4.05;47.91
25658;BME280;13517;59.320;18.042;2023-03-04T08:26:12;99937.88;;;-3.74;49.70
25658;BME280;13517;59.320;18.042;2023-03-04T08:28:38;100090.28;;;-3.33;48.66
25658;BME280;13517;59.320;18.042;2023-03-04T08:31:04;100027.84;;;-3.36;47.80
25658;BME280;13517;59.320;18.042;2023-03-04T08:33:32;99937.88;;;-3.74;47.37
25658;BME280;13517;59.320;18.042;2023-03-04T08:35:57;99876.66;;;-3.93;48.33
25658;BME280;13517;59.320;18.042;2023-03-04T08:38:23;99946.38;;;-3.58;47.81
25658;BME280;13517;59.320;18.042;2023-03-04T08:40:53;100022.97;;;-3.10;48.73
25658;BME280;13517;59.320;18.042;2023-03-04T08:43:19;99909.03;;;-3.85;47.75
25658;BME280;13517;59.320;18.042;2023-03-04T08:45:44;99918.38;;;-3.66;47.89
25658;BME280;13517;59.320;18.042;2023-03-04T08:48:10;99955.38;;;-3.22;47.90
25658;BME280;13517;59.320;18.042;2023-03-04T08:50:35;99955.13;;;-3.10;48.02
25658;BME280;13517;59.320;18.042;2023-03-04T08:53:01;99982.28;;;-3.03;47.89
25658;BME280;13517;59.320;18.042;2023-03-04T08:55:26;99959.53;;;-3.10;48.21
25658;BME280;13517;59.320;18.042;2023-03-04T08:57:52;99984.75;;;-2.95;47.87
25658;BME280;13517;59.320;18.042;2023-03-04T09:00:17;99969.03;;;-3.02;47.93
25658;BME280;13517;59.320;18.042;2023-03-04T09:02:43;100032.22;;;-2.91;48.46
25658;BME280;13517;59.320;18.042;2023-03-04T09:05:09;100083.84;;;-2.71;48.62
25658;BME280;13517;59.320;18.042;2023-03-04T09:07:34;100010.13;;;-2.87;49.25
25658;BME280;13517;59.320;18.042;2023-03-04T09:09:59;99968.53;;;-3.21;50.73
25658;BME280;13517;59.320;18.042;2023-03-04T09:12:25;99929.25;;;-3.38;50.52
25658;BME280;13517;59.320;18.042;2023-03-04T09:14:50;100003.75;;;-3.19;50.21
25658;BME280;13517;59.320;18.042;2023-03-04T09:17:16;100031.53;;;-2.99;51.03
25658;BME280;13517;59.320;18.042;2023-03-04T09:19:41;100040.16;;;-2.91;51.26
25658;BME280;13517;59.320;18.042;2023-03-04T09:22:06;100033.91;;;-2.85;51.16
25658;BME280;13517;59.320;18.042;2023-03-04T09:24:32;99991.06;;;-3.01;52.01
25658;BME280;13517;59.320;18.042;2023-03-04T09:26:57;100034.75;;;-2.84;51.46
25658;BME280;13517;59.320;18.042;2023-03-04T09:29:23;100000.84;;;-3.06;52.62
25658;BME280;13517;59.320;18.042;2023-03-04T09:31:49;100063.94;;;-2.89;52.35
25658;BME280;13517;59.320;18.042;2023-03-04T09:34:14;100008.22;;;-3.22;51.52
25658;BME280;13517;59.320;18.042;2023-03-04T09:36:40;100023.44;;;-2.90;52.00
25658;BME280;13517;59.320;18.042;2023-03-04T09:39:05;99988.97;;;-3.31;51.85
25658;BME280;13517;59.320;18.042;2023-03-04T09:41:45;100010.38;;;-2.99;51.49
25658;BME280;13517;59.320;18.042;2023-03-04T09:44:22;100046.94;;;-2.77;51.74
25658;BME280;13517;59.320;18.042;2023-03-04T09:46:49;100049.66;;;-2.80;50.81
25658;BME280;13517;59.320;18.042;2023-03-04T09:49:16;99940.59;;;-3.33;51.15
25658;BME280;13517;59.320;18.042;2023-03-04T09:57:42;100076.34;;;-2.50;50.66
25658;BME280;13517;59.320;18.042;2023-03-04T10:05:20;100089.34;;;-2.39;51.82
25658;BME280;13517;59.320;18.042;2023-03-04T10:07:51;100026.63;;;-2.33;51.68
25658;BME280;13517;59.320;18.042;2023-03-04T10:10:31;100014.69;;;-2.52;52.50
25658;BME280;13517;59.320;18.042;2023-03-04T10:13:00;100036.09;;;-2.24;52.17
25658;BME280;13517;59.320;18.042;2023-03-04T10:15:39;100004.84;;;-2.46;52.04
25658;BME280;13517;59.320;18.042;2023-03-04T10:23:21;100046.34;;;-2.08;52.78
25658;BME280;13517;59.320;18.042;2023-03-04T10:25:49;100067.22;;;-1.96;52.86
25658;BME280;13517;59.320;18.042;2023-03-04T10:28:22;100041.91;;;-2.08;52.50
25658;BME280;13517;59.320;18.042;2023-03-04T10:33:32;100045.84;;;-1.86;54.19
25658;BME280;13517;59.320;18.042;2023-03-04T10:38:58;100067.47;;;-1.70;54.11
25658;BME280;13517;59.320;18.042;2023-03-04T10:41:26;100039.78;;;-1.57;54.01
25658;BME280;13517;59.320;18.042;2023-03-04T10:44:15;100001.75;;;-1.89;55.36
25658;BME280;13517;59.320;18.042;2023-03-04T10:46:43;100027.28;;;-1.50;53.64
25658;BME280;13517;59.320;18.042;2023-03-04T10:49:10;99948.94;;;-1.94;53.58
25658;BME280;13517;59.320;18.042;2023-03-04T10:54:53;100023.16;;;-1.29;54.75
25658;BME280;13517;59.320;18.042;2023-03-04T10:57:35;100051.16;;;-1.18;53.71
25658;BME280;13517;59.320;18.042;2023-03-04T11:02:45;100046.38;;;-1.04;54.32
25658;BME280;13517;59.320;18.042;2023-03-04T11:05:17;100035.94;;;-1.10;54.19
25658;BME280;13517;59.320;18.042;2023-03-04T11:12:41;100042.50;;;-0.92;54.87
25658;BME280;13517;59.320;18.042;2023-03-04T11:15:20;100048.41;;;-0.82;54.97
25658;BME280;13517;59.320;18.042;2023-03-04T11:17:54;100042.94;;;-0.76;54.26
25658;BME280;13517;59.320;18.042;2023-03-04T11:20:29;100105.56;;;-0.72;54.05
25658;BME280;13517;59.320;18.042;2023-03-04T11:23:08;99999.69;;;-1.10;54.22
25658;BME280;13517;59.320;18.042;2023-03-04T11:25:39;99960.72;;;-1.06;53.52
25658;BME280;13517;59.320;18.042;2023-03-04T11:30:58;100038.38;;;-0.71;53.79
25658;BME280;13517;59.320;18.042;2023-03-04T11:33:38;100046.50;;;-0.77;53.66
25658;BME280;13517;59.320;18.042;2023-03-04T11:38:52;99957.66;;;-1.24;53.93
25658;BME280;13517;59.320;18.042;2023-03-04T11:41:35;100037.13;;;-0.59;54.71
25658;BME280;13517;59.320;18.042;2023-03-04T11:44:05;100051.31;;;-0.60;54.10
25658;BME280;13517;59.320;18.042;2023-03-04T11:55:17;100002.59;;;-0.29;53.54
25658;BME280;13517;59.320;18.042;2023-03-04T12:05:45;100035.44;;;0.24;52.66
25658;BME280;13517;59.320;18.042;2023-03-04T12:16:09;100044.09;;;0.31;52.36
25658;BME280;13517;59.320;18.042;2023-03-04T12:18:56;100028.91;;;0.35;50.69
25658;BME280;13517;59.320;18.042;2023-03-04T12:29:46;100034.66;;;0.48;51.55
25658;BME280;13517;59.320;18.042;2023-03-04T12:38:01;100033.59;;;0.53;51.04
25658;BME280;13517;59.320;18.042;2023-03-04T12:40:54;100055.56;;;0.59;51.18
25658;BME280;13517;59.320;18.042;2023-03-04T12:46:17;100033.53;;;0.55;50.93
25658;BME280;13517;59.320;18.042;2023-03-04T12:56:27;100034.03;;;0.66;51.21
25658;BME280;13517;59.320;18.042;2023-03-04T12:58:57;100048.13;;;0.68;51.24
25658;BME280;13517;59.320;18.042;2023-03-04T13:01:38;100003.28;;;0.59;50.97
25658;BME280;13517;59.320;18.042;2023-03-04T13:04:16;100036.69;;;0.66;50.84
25658;BME280;13517;59.320;18.042;2023-03-04T13:07:34;100047.59;;;0.59;51.91
25658;BME280;13517;59.320;18.042;2023-03-04T13:09:42;100103.88;;;0.45;51.45
25658;BME280;13517;59.320;18.042;2023-03-04T13:12:17;100001.47;;;0.07;53.04
25658;BME280;13517;59.320;18.042;2023-03-04T13:17:43;100042.97;;;0.38;53.23
25658;BME280;13517;59.320;18.042;2023-03-04T13:23:29;100045.63;;;0.38;53.93
25658;BME280;13517;59.320;18.042;2023-03-04T13:28:23;100052.13;;;0.28;54.58
25658;BME280;13517;59.320;18.042;2023-03-04T13:46:41;100088.34;;;-0.57;72.83
25658;BME280;13517;59.320;18.042;2023-03-04T13:49:16;100032.00;;;-0.65;72.51
25658;BME280;13517;59.320;18.042;2023-03-04T13:51:44;100029.25;;;-0.92;70.41
25658;BME280;13517;59.320;18.042;2023-03-04T13:54:30;100083.31;;;-0.66;73.90
25658;BME280;13517;59.320;18.042;2023-03-04T14:02:02;100049.38;;;-0.55;70.74
25658;BME280;13517;59.320;18.042;2023-03-04T14:04:36;100061.31;;;-0.39;71.57
25658;BME280;13517;59.320;18.042;2023-03-04T14:12:44;100087.06;;;-0.42;70.91
25658;BME280;13517;59.320;18.042;2023-03-04T14:17:44;100077.09;;;-0.35;69.31
25658;BME280;13517;59.320;18.042;2023-03-04T14:20:30;100114.31;;;-0.36;70.79
25658;BME280;13517;59.320;18.042;2023-03-04T14:22:57;100097.78;;;-0.46;71.09
25658;BME280;13517;59.320;18.042;2023-03-04T14:25:33;100070.00;;;-0.64;71.39
25658;BME280;13517;59.320;18.042;2023-03-04T14:30:36;100076.50;;;-0.45;70.50
25658;BME280;13517;59.320;18.042;2023-03-04T14:33:06;100103.97;;;-0.46;70.73
25658;BME280;13517;59.320;18.042;2023-03-04T14:35:33;100063.97;;;-0.70;69.79
25658;BME280;13517;59.320;18.042;2023-03-04T14:38:21;100099.66;;;-0.50;69.49
25658;BME280;13517;59.320;18.042;2023-03-04T14:40:52;100079.34;;;-0.51;69.24
25658;BME280;13517;59.320;18.042;2023-03-04T14:43:21;100069.66;;;-0.52;69.00
25658;BME280;13517;59.320;18.042;2023-03-04T14:45:58;100066.19;;;-0.54;68.85
25658;BME280;13517;59.320;18.042;2023-03-04T14:48:32;100079.13;;;-0.43;68.32
25658;BME280;13517;59.320;18.042;2023-03-04T14:50:59;100081.69;;;-0.40;67.52
25658;BME280;13517;59.320;18.042;2023-03-04T14:53:27;100061.69;;;-0.52;67.76
25658;BME280;13517;59.320;18.042;2023-03-04T14:56:04;100067.91;;;-0.53;68.59
25658;BME280;13517;59.320;18.042;2023-03-04T14:58:35;100060.94;;;-0.57;67.11
25658;BME280;13517;59.320;18.042;2023-03-04T15:01:21;100070.06;;;-0.36;67.65